Atalanti — 5BYY2 — position and weather

sailwx.info

Track history (hours):
 
Tides and Currents Weather Stations Pressure Air Temp Water Temp Dewpoint Dewpoint Depression Visibility Wind Speed Wind Dir Waves Ship Positions

Atalanti

Last reported at 2017-Nov-24 16:18 UTC. Time now 2017-Nov-24 20:59 UTC.
Position N 49°49' W 003°25'.

Length 97 m; draft 3.9 m.

Type: Other ship. MMSI: 212279000.

Date/timePositionNaut miles runAvg speedWind from/ knotsBaromVisibWave heightAir tempDewpointWater temp
2017-Nov-24 16:18N 49°49' W 003°25'6 7.2
2017-Nov-24 15:30N 49°52' W 003°17'4 8.8
2017-Nov-24 15:00N 49°54' W 003°11'4 8.7
2017-Nov-24 14:30N 49°56' W 003°06'4 8.3
2017-Nov-24 14:00N 49°58' W 002°60'4 7.9
2017-Nov-24 13:30N 50°00' W 002°55'4 7.6
2017-Nov-24 12:59N 50°01' W 002°49'3 7.0
2017-Nov-24 12:30N 50°02' W 002°44'3 6.6
2017-Nov-24 12:00N 50°03' W 002°39'4 6.1
2017-Nov-24 11:23N 50°04' W 002°33'30 6.6
2017-Nov-24 06:49N 50°12' W 001°48'3 8.9
2017-Nov-24 06:30N 50°13' W 001°43'5 9.3
2017-Nov-24 06:00N 50°14' W 001°36'5 9.8
2017-Nov-24 05:29N 50°16' W 001°29'42 8.3
2017-Nov-24 00:28N 50°27' W 000°26'3 5.4
2017-Nov-24 00:00N 50°28' W 000°22'3 5.1
2017-Nov-23 23:30N 50°29' W 000°18'2 4.9
2017-Nov-23 23:00N 50°29' W 000°15'2 4.8
2017-Nov-23 22:30N 50°30' W 000°11'2 5.0
2017-Nov-23 22:00N 50°30' W 000°07'3 5.2
2017-Nov-23 21:30N 50°31' W 000°03'3 5.7
2017-Nov-23 21:00N 50°32' E 000°01'3 6.1
2017-Nov-23 20:30N 50°33' E 000°06'3 6.4
2017-Nov-23 20:00N 50°34' E 000°10'3 6.6
2017-Nov-23 19:30N 50°35' E 000°15'3 6.7
2017-Nov-23 19:00N 50°36' E 000°21'3 6.8
2017-Nov-23 18:30N 50°36' E 000°26'3 6.7
2017-Nov-23 18:00N 50°37' E 000°31'3 6.3
2017-Nov-23 17:30N 50°39' E 000°35'3 6.2
2017-Nov-23 17:00N 50°41' E 000°39'3 6.0
2017-Nov-23 16:30N 50°42' E 000°43'3 5.4
2017-Nov-23 16:00N 50°44' E 000°47'3 5.1
2017-Nov-23 15:30N 50°45' E 000°50'3 5.0
2017-Nov-23 15:00N 50°47' E 000°53'2 4.6
2017-Nov-23 14:30N 50°48' E 000°56'2 4.3
2017-Nov-23 14:00N 50°49' E 000°59'2 4.3
2017-Nov-23 13:28N 50°51' E 001°02'2 4.2
2017-Nov-23 13:00N 50°52' E 001°04'2 4.3
2017-Nov-23 12:25N 50°54' E 001°07'1 3.1
2017-Nov-23 11:59N 50°55' E 001°09'2 3.3
2017-Nov-23 11:30N 50°55' E 001°11'2 3.4
2017-Nov-23 11:00N 50°56' E 001°13'2 3.8
2017-Nov-23 10:30N 50°58' E 001°15'2 4.0
2017-Nov-23 10:00N 50°59' E 001°17'2 4.3
2017-Nov-23 09:30N 51°00' E 001°20'2 4.2
2017-Nov-23 09:00N 51°02' E 001°23'2 4.4
2017-Nov-23 08:30N 51°03' E 001°26'2 4.0
2017-Nov-23 08:00N 51°04' E 001°28'2 3.5
2017-Nov-23 07:30N 51°05' E 001°30'2 3.4
2017-Nov-23 07:00N 51°06' E 001°32'1 2.6
2017-Nov-23 06:30N 51°07' E 001°34'1 1.9
2017-Nov-23 06:00N 51°08' E 001°35'1 1.8
2017-Nov-23 05:30N 51°08' E 001°36'1 1.7
2017-Nov-23 05:00N 51°09' E 001°37'1 1.3
2017-Nov-23 04:30N 51°10' E 001°38'0 0.9
2017-Nov-23 04:00N 51°10' E 001°39'0 0.6
2017-Nov-23 03:30N 51°10' E 001°39'0 0.5
2017-Nov-23 03:00N 51°10' E 001°39'0 0.5
2017-Nov-23 02:30N 51°10' E 001°39'0 0.7
2017-Nov-23 02:00N 51°11' E 001°40'0 1.0
2017-Nov-23 01:30N 51°11' E 001°40'1 1.1
2017-Nov-23 01:01N 51°11' E 001°41'1 1.4
2017-Nov-23 00:30N 51°12' E 001°42'1 1.0
2017-Nov-23 00:00N 51°12' E 001°42'1 2.0
2017-Nov-22 23:30N 51°13' E 001°44'1 2.6
2017-Nov-22 23:00N 51°13' E 001°45'2 3.7
2017-Nov-22 22:30N 51°15' E 001°46'2 4.0
2017-Nov-22 22:00N 51°17' E 001°48'2 3.5
2017-Nov-22 21:30N 51°19' E 001°49'2 3.7
2017-Nov-22 21:00N 51°20' E 001°50'2 3.8
2017-Nov-22 20:30N 51°22' E 001°51'2 3.7
2017-Nov-22 20:00N 51°24' E 001°52'2 3.7
2017-Nov-22 19:30N 51°25' E 001°53'  
2017-Nov-20 00:19N 55°28' E 008°26'0 0.0
2017-Nov-19 23:52N 55°28' E 008°26'0 0.0
2017-Nov-19 23:22N 55°28' E 008°26'0 0.0
2017-Nov-19 22:52N 55°28' E 008°26'0 0.0
2017-Nov-19 21:37N 55°28' E 008°26'0 0.0
2017-Nov-19 21:22N 55°28' E 008°26'0 0.0
2017-Nov-19 20:55N 55°28' E 008°26'0 0.0
2017-Nov-19 20:22N 55°28' E 008°26'0 0.0
2017-Nov-19 19:52N 55°28' E 008°26'0 0.0
2017-Nov-19 19:25N 55°28' E 008°26'0 0.0
2017-Nov-19 18:55N 55°28' E 008°26'0 0.0
2017-Nov-19 18:28N 55°28' E 008°26'0 0.0
2017-Nov-19 17:58N 55°28' E 008°26'0 0.0
2017-Nov-19 17:13N 55°28' E 008°26'0 0.0
2017-Nov-19 16:58N 55°28' E 008°26'0 0.0
2017-Nov-19 15:46N 55°28' E 008°26'0 0.0
2017-Nov-19 15:16N 55°28' E 008°26'0 0.0
2017-Nov-19 14:58N 55°28' E 008°26'0 0.0
2017-Nov-19 14:28N 55°28' E 008°26'0 0.0
2017-Nov-19 13:43N 55°28' E 008°26'0 0.0
2017-Nov-19 13:13N 55°28' E 008°26'0 0.0
2017-Nov-19 12:58N 55°28' E 008°26'0 0.0
2017-Nov-19 12:28N 55°28' E 008°26'0 0.0
2017-Nov-19 11:58N 55°28' E 008°26'0 0.0
2017-Nov-19 11:28N 55°28' E 008°26'0 0.0
2017-Nov-19 10:49N 55°28' E 008°26'0 0.0
2017-Nov-19 10:19N 55°28' E 008°26'0 0.0
2017-Nov-19 09:52N 55°28' E 008°26'0 0.0
2017-Nov-19 09:19N 55°28' E 008°26'0 0.0
2017-Nov-19 08:49N 55°28' E 008°26'0 0.0
2017-Nov-19 08:07N 55°28' E 008°26'0 0.0
2017-Nov-19 07:37N 55°28' E 008°26'0 0.0
2017-Nov-19 07:25N 55°28' E 008°26'0 0.0
2017-Nov-19 06:52N 55°28' E 008°26'0 0.0
2017-Nov-19 06:25N 55°28' E 008°26'0 0.0
2017-Nov-19 05:52N 55°28' E 008°26'0 0.0
2017-Nov-19 05:25N 55°28' E 008°26'0 0.0
2017-Nov-19 04:52N 55°28' E 008°26'0 0.0
2017-Nov-19 04:28N 55°28' E 008°26'0 0.0
2017-Nov-19 03:58N 55°28' E 008°26'0 0.0
2017-Nov-19 03:28N 55°28' E 008°26'0 0.0
2017-Nov-19 02:55N 55°28' E 008°26'0 0.0
2017-Nov-19 02:25N 55°28' E 008°26'0 0.0
2017-Nov-19 01:58N 55°28' E 008°26'0 0.0
2017-Nov-19 01:28N 55°28' E 008°26'0 0.0
2017-Nov-19 00:55N 55°28' E 008°26'0 0.0
2017-Nov-19 00:28N 55°28' E 008°26'0 0.0
2017-Nov-18 23:58N 55°28' E 008°26'0 0.0
2017-Nov-18 23:28N 55°28' E 008°26'0 0.0
2017-Nov-18 22:43N 55°28' E 008°26'0 0.0
2017-Nov-18 22:28N 55°28' E 008°26'0 0.0
2017-Nov-18 21:49N 55°28' E 008°26'0 0.0
2017-Nov-18 21:04N 55°28' E 008°26'0 0.0
2017-Nov-18 20:49N 55°28' E 008°26'0 0.0
2017-Nov-18 20:16N 55°28' E 008°26'0 0.0
2017-Nov-18 19:49N 55°28' E 008°26'0 0.0
2017-Nov-18 19:19N 55°28' E 008°26'0 0.0
2017-Nov-18 18:46N 55°28' E 008°26'0 0.0
2017-Nov-18 17:52N 55°28' E 008°26'0 0.0
2017-Nov-18 17:25N 55°28' E 008°26'0 0.0
2017-Nov-18 16:37N 55°28' E 008°26'0 0.0
2017-Nov-18 16:25N 55°28' E 008°26'0 0.0
2017-Nov-18 15:55N 55°28' E 008°26'0 0.0
2017-Nov-18 15:22N 55°28' E 008°26'0 0.0
2017-Nov-18 14:55N 55°28' E 008°26'0 0.0
2017-Nov-18 14:22N 55°28' E 008°26'0 0.0
2017-Nov-18 13:58N 55°28' E 008°26'0 0.0
2017-Nov-18 13:28N 55°28' E 008°26'0 0.0
2017-Nov-18 12:55N 55°28' E 008°26'0 0.0
2017-Nov-18 12:28N 55°28' E 008°26'0 0.0
2017-Nov-18 11:55N 55°28' E 008°26'0 0.0
2017-Nov-18 11:16N 55°28' E 008°26'0 0.0
2017-Nov-18 10:55N 55°28' E 008°26'0 0.0
2017-Nov-18 10:16N 55°28' E 008°26'0 0.0
2017-Nov-18 09:58N 55°28' E 008°26'0 0.0
2017-Nov-18 09:01N 55°28' E 008°26'0 0.0
2017-Nov-18 08:58N 55°28' E 008°26'0 0.0
2017-Nov-18 08:28N 55°28' E 008°26'0 0.0
2017-Nov-18 07:58N 55°28' E 008°26'0 0.0
2017-Nov-18 07:19N 55°28' E 008°26'0 0.0
2017-Nov-18 06:49N 55°28' E 008°26'0 0.0
2017-Nov-18 06:19N 55°28' E 008°26'0 0.0
2017-Nov-18 05:46N 55°28' E 008°26'0 0.0
2017-Nov-18 05:22N 55°28' E 008°26'0 0.0
2017-Nov-18 04:52N 55°28' E 008°26'0 0.0
2017-Nov-18 04:19N 55°28' E 008°26'0 0.0
2017-Nov-18 03:52N 55°28' E 008°26'0 0.0
2017-Nov-18 03:22N 55°28' E 008°26'0 0.0
2017-Nov-18 02:52N 55°28' E 008°26'0 0.0
2017-Nov-18 02:25N 55°28' E 008°26'0 0.0
2017-Nov-18 01:52N 55°28' E 008°26'0 0.0
2017-Nov-18 01:25N 55°28' E 008°26'0 0.0
2017-Nov-18 00:52N 55°28' E 008°26'0 0.0
2017-Nov-18 00:25N 55°28' E 008°26'0 0.0
2017-Nov-17 23:55N 55°28' E 008°26'0 0.0
2017-Nov-17 23:28N 55°28' E 008°26'0 0.0
2017-Nov-17 22:55N 55°28' E 008°26'0 0.0
2017-Nov-17 22:25N 55°28' E 008°26'0 0.0
2017-Nov-17 21:58N 55°28' E 008°26'0 0.0
2017-Nov-17 21:16N 55°28' E 008°26'0 0.0
2017-Nov-17 20:58N 55°28' E 008°26'0 0.0
2017-Nov-17 20:28N 55°28' E 008°26'0 0.0
2017-Nov-17 19:46N 55°28' E 008°26'0 0.0
2017-Nov-17 19:28N 55°28' E 008°26'0 0.0
2017-Nov-17 18:58N 55°28' E 008°26'0 0.0
2017-Nov-17 18:28N 55°28' E 008°26'0 0.0
2017-Nov-17 17:58N 55°28' E 008°26'0 0.0
2017-Nov-17 16:49N 55°28' E 008°26'0 0.0
2017-Nov-17 16:19N 55°28' E 008°26'0 0.0
2017-Nov-17 15:49N 55°28' E 008°26'0 0.0
2017-Nov-17 15:19N 55°28' E 008°26'0 0.0
2017-Nov-17 14:49N 55°28' E 008°26'0 0.0
2017-Nov-17 14:22N 55°28' E 008°26'0 0.0
2017-Nov-17 13:49N 55°28' E 008°26'0 0.0
2017-Nov-17 13:19N 55°28' E 008°26'0 0.0
2017-Nov-17 12:49N 55°28' E 008°26'0 0.0
2017-Nov-17 12:25N 55°28' E 008°26'0 0.0
2017-Nov-17 11:55N 55°28' E 008°26'0 0.0
2017-Nov-17 11:25N 55°28' E 008°26'0 0.3
2017-Nov-17 10:55N 55°27' E 008°26'1 1.3
2017-Nov-17 10:16N 55°27' E 008°28'0 0.0
2017-Nov-17 09:58N 55°27' E 008°28'0 0.0
2017-Nov-17 09:13N 55°27' E 008°28'0 0.0
2017-Nov-17 08:46N 55°27' E 008°28'0 0.0
2017-Nov-17 08:19N 55°27' E 008°28'0 0.0
2017-Nov-17 07:49N 55°27' E 008°28'0 0.0
2017-Nov-17 07:22N 55°27' E 008°28'0 0.0
2017-Nov-17 06:52N 55°27' E 008°28'0 0.0
2017-Nov-17 06:22N 55°27' E 008°28'0 0.0
2017-Nov-17 05:49N 55°27' E 008°28'0 0.0
2017-Nov-17 05:22N 55°27' E 008°28'0 0.0
2017-Nov-17 04:49N 55°27' E 008°28'0 0.0
2017-Nov-17 04:25N 55°27' E 008°28'0 0.0
2017-Nov-17 03:55N 55°27' E 008°28'0 0.0
2017-Nov-17 03:25N 55°27' E 008°28'0 0.0
2017-Nov-17 02:55N 55°27' E 008°28'0 0.0
2017-Nov-17 02:22N 55°27' E 008°28'0 0.0
2017-Nov-17 01:52N 55°27' E 008°28'0 0.0
2017-Nov-17 01:28N 55°27' E 008°28'0 0.0
2017-Nov-17 00:58N 55°27' E 008°28'0 0.0
2017-Nov-17 00:28N 55°27' E 008°28'0 0.0
2017-Nov-16 23:58N 55°27' E 008°28'0 0.0
2017-Nov-16 23:25N 55°27' E 008°28'0 0.0
2017-Nov-16 22:58N 55°27' E 008°28'0 0.0
2017-Nov-16 22:25N 55°27' E 008°28'0 0.0
2017-Nov-16 21:46N 55°27' E 008°28'0 0.0
2017-Nov-16 21:28N 55°27' E 008°28'0 0.0
2017-Nov-16 20:58N 55°27' E 008°28'0 0.0
2017-Nov-16 20:28N 55°27' E 008°28'0 0.0
2017-Nov-16 19:46N 55°27' E 008°28'0 0.0
2017-Nov-16 19:19N 55°27' E 008°28'0 0.0
2017-Nov-16 18:58N 55°27' E 008°28'0 0.0
2017-Nov-16 18:19N 55°27' E 008°28'0 0.0
2017-Nov-16 17:46N 55°27' E 008°28'0 0.0
2017-Nov-16 17:07N 55°27' E 008°28'0 0.0
2017-Nov-16 16:49N 55°27' E 008°28'0 0.0
2017-Nov-16 16:22N 55°27' E 008°28'0 0.0
2017-Nov-16 15:52N 55°27' E 008°28'0 0.0
2017-Nov-16 15:22N 55°27' E 008°28'0 0.0
2017-Nov-16 14:52N 55°27' E 008°28'0 0.0
2017-Nov-16 14:22N 55°27' E 008°28'0 0.0
2017-Nov-16 13:52N 55°27' E 008°28'0 0.0
2017-Nov-16 13:22N 55°27' E 008°28'0 0.0
2017-Nov-16 12:25N 55°27' E 008°28'0 0.0
2017-Nov-16 11:55N 55°27' E 008°28'0 0.0
2017-Nov-16 11:25N 55°27' E 008°28'0 0.0
2017-Nov-16 10:58N 55°27' E 008°28'0 0.0
2017-Nov-16 10:28N 55°27' E 008°28'0 0.0
2017-Nov-16 09:43N 55°27' E 008°28'0 0.0
2017-Nov-16 09:28N 55°27' E 008°28'0 0.0
2017-Nov-16 08:40N 55°27' E 008°28'0 0.0
2017-Nov-16 08:28N 55°27' E 008°28'0 0.0
2017-Nov-16 07:55N 55°27' E 008°28'0 0.0
2017-Nov-16 07:28N 55°27' E 008°28'0 0.0
2017-Nov-16 06:58N 55°27' E 008°28'0 0.0
2017-Nov-16 06:16N 55°27' E 008°28'0 0.0
2017-Nov-16 05:58N 55°27' E 008°28'0 0.0
2017-Nov-16 05:28N 55°27' E 008°28'0 0.0
2017-Nov-16 04:49N 55°27' E 008°28'0 0.0
2017-Nov-16 04:04N 55°27' E 008°28'0 0.0
2017-Nov-16 03:49N 55°27' E 008°28'0 0.0
2017-Nov-16 03:22N 55°27' E 008°28'0 0.0
2017-Nov-16 02:52N 55°27' E 008°28'0 0.0
2017-Nov-16 02:01N 55°27' E 008°28'0 0.0
2017-Nov-16 01:49N 55°27' E 008°28'0 0.0
2017-Nov-16 01:22N 55°27' E 008°28'0 0.0
2017-Nov-16 00:52N 55°27' E 008°28'0 0.0
2017-Nov-16 00:25N 55°27' E 008°28'0 0.0
2017-Nov-15 23:55N 55°27' E 008°28'0 0.0
2017-Nov-15 23:25N 55°27' E 008°28'0 0.0
2017-Nov-15 22:37N 55°27' E 008°28'0 0.0
2017-Nov-15 22:25N 55°27' E 008°28'0 0.0
2017-Nov-15 21:55N 55°27' E 008°28'0 0.0
2017-Nov-15 21:30N 55°27' E 008°28'0 0.0
2017-Nov-15 20:58N 55°27' E 008°28'0 0.0
2017-Nov-15 20:28N 55°27' E 008°28'0 0.0
2017-Nov-15 19:58N 55°27' E 008°28'0 0.0
2017-Nov-15 18:55N 55°27' E 008°28'0 0.0
2017-Nov-15 18:28N 55°27' E 008°28'0 0.0
2017-Nov-15 17:59N 55°27' E 008°28'0 0.0
2017-Nov-15 17:30N 55°27' E 008°28'0 0.0
2017-Nov-15 17:00N 55°27' E 008°28'0 0.0
2017-Nov-15 16:30N 55°27' E 008°28'0 0.3
2017-Nov-15 16:00N 55°27' E 008°27'2 3.7
2017-Nov-15 15:30N 55°28' E 008°25'2 3.9
2017-Nov-15 15:00N 55°29' E 008°21'2 5.0
2017-Nov-15 14:30N 55°27' E 008°18'3 5.3
2017-Nov-15 14:00N 55°26' E 008°14'3 5.8
2017-Nov-15 13:30N 55°24' E 008°10'2 4.4
2017-Nov-15 13:00N 55°23' E 008°07'2 3.8
2017-Nov-15 12:30N 55°22' E 008°04'3 6.0
2017-Nov-15 12:00N 55°20' E 007°60'3 6.7
2017-Nov-15 11:30N 55°18' E 007°55'3 6.8
2017-Nov-15 11:00N 55°16' E 007°50'3 6.7
2017-Nov-15 10:30N 55°14' E 007°45'3 6.7
2017-Nov-15 10:00N 55°13' E 007°40'3 6.8
2017-Nov-15 09:30N 55°11' E 007°35'4 7.2
2017-Nov-15 09:00N 55°09' E 007°30'3 6.7
2017-Nov-15 08:30N 55°06' E 007°26'3 6.8
2017-Nov-15 08:00N 55°03' E 007°24'3 6.8
2017-Nov-15 07:30N 55°00' E 007°21'3 6.7
2017-Nov-15 07:00N 54°58' E 007°17'3 6.7
2017-Nov-15 06:30N 54°55' E 007°14'3 6.8
2017-Nov-15 06:00N 54°52' E 007°10'4 7.2
2017-Nov-15 05:30N 54°50' E 007°06'3 6.4
2017-Nov-15 05:00N 54°47' E 007°03'3 6.9
2017-Nov-15 04:30N 54°44' E 006°60'4 7.1
2017-Nov-15 04:00N 54°41' E 006°56'  
Track history (hours):
 
Tides and Currents Weather Stations Pressure Air Temp Water Temp Dewpoint Dewpoint Depression Visibility Wind Speed Wind Dir Waves Ship Positions

Atalanti

Last reported at 2017-Nov-24 16:18 UTC. Time now 2017-Nov-24 20:59 UTC.
Position N 49°49' W 003°25'.

Length 97 m; draft 3.9 m.

Type: Other ship. MMSI: 212279000.

Date/timePositionNaut miles runAvg speedWind from/ knotsBaromVisibWave heightAir tempDewpointWater temp
2017-Nov-24 16:18N 49°49' W 003°25'6 7.2
2017-Nov-24 15:30N 49°52' W 003°17'4 8.8
2017-Nov-24 15:00N 49°54' W 003°11'4 8.7
2017-Nov-24 14:30N 49°56' W 003°06'4 8.3
2017-Nov-24 14:00N 49°58' W 002°60'4 7.9
2017-Nov-24 13:30N 50°00' W 002°55'4 7.6
2017-Nov-24 12:59N 50°01' W 002°49'3 7.0
2017-Nov-24 12:30N 50°02' W 002°44'3 6.6
2017-Nov-24 12:00N 50°03' W 002°39'4 6.1
2017-Nov-24 11:23N 50°04' W 002°33'30 6.6
2017-Nov-24 06:49N 50°12' W 001°48'3 8.9
2017-Nov-24 06:30N 50°13' W 001°43'5 9.3
2017-Nov-24 06:00N 50°14' W 001°36'5 9.8
2017-Nov-24 05:29N 50°16' W 001°29'42 8.3
2017-Nov-24 00:28N 50°27' W 000°26'3 5.4
2017-Nov-24 00:00N 50°28' W 000°22'3 5.1
2017-Nov-23 23:30N 50°29' W 000°18'2 4.9
2017-Nov-23 23:00N 50°29' W 000°15'2 4.8
2017-Nov-23 22:30N 50°30' W 000°11'2 5.0
2017-Nov-23 22:00N 50°30' W 000°07'3 5.2
2017-Nov-23 21:30N 50°31' W 000°03'3 5.7
2017-Nov-23 21:00N 50°32' E 000°01'3 6.1
2017-Nov-23 20:30N 50°33' E 000°06'3 6.4
2017-Nov-23 20:00N 50°34' E 000°10'3 6.6
2017-Nov-23 19:30N 50°35' E 000°15'3 6.7
2017-Nov-23 19:00N 50°36' E 000°21'3 6.8
2017-Nov-23 18:30N 50°36' E 000°26'3 6.7
2017-Nov-23 18:00N 50°37' E 000°31'3 6.3
2017-Nov-23 17:30N 50°39' E 000°35'3 6.2
2017-Nov-23 17:00N 50°41' E 000°39'3 6.0
2017-Nov-23 16:30N 50°42' E 000°43'3 5.4
2017-Nov-23 16:00N 50°44' E 000°47'3 5.1
2017-Nov-23 15:30N 50°45' E 000°50'3 5.0
2017-Nov-23 15:00N 50°47' E 000°53'2 4.6
2017-Nov-23 14:30N 50°48' E 000°56'2 4.3
2017-Nov-23 14:00N 50°49' E 000°59'2 4.3
2017-Nov-23 13:28N 50°51' E 001°02'2 4.2
2017-Nov-23 13:00N 50°52' E 001°04'2 4.3
2017-Nov-23 12:25N 50°54' E 001°07'1 3.1
2017-Nov-23 11:59N 50°55' E 001°09'2 3.3
2017-Nov-23 11:30N 50°55' E 001°11'2 3.4
2017-Nov-23 11:00N 50°56' E 001°13'2 3.8
2017-Nov-23 10:30N 50°58' E 001°15'2 4.0
2017-Nov-23 10:00N 50°59' E 001°17'2 4.3
2017-Nov-23 09:30N 51°00' E 001°20'2 4.2
2017-Nov-23 09:00N 51°02' E 001°23'2 4.4
2017-Nov-23 08:30N 51°03' E 001°26'2 4.0
2017-Nov-23 08:00N 51°04' E 001°28'2 3.5
2017-Nov-23 07:30N 51°05' E 001°30'2 3.4
2017-Nov-23 07:00N 51°06' E 001°32'1 2.6
2017-Nov-23 06:30N 51°07' E 001°34'1 1.9
2017-Nov-23 06:00N 51°08' E 001°35'1 1.8
2017-Nov-23 05:30N 51°08' E 001°36'1 1.7
2017-Nov-23 05:00N 51°09' E 001°37'1 1.3
2017-Nov-23 04:30N 51°10' E 001°38'0 0.9
2017-Nov-23 04:00N 51°10' E 001°39'0 0.6
2017-Nov-23 03:30N 51°10' E 001°39'0 0.5
2017-Nov-23 03:00N 51°10' E 001°39'0 0.5
2017-Nov-23 02:30N 51°10' E 001°39'0 0.7
2017-Nov-23 02:00N 51°11' E 001°40'0 1.0
2017-Nov-23 01:30N 51°11' E 001°40'1 1.1
2017-Nov-23 01:01N 51°11' E 001°41'1 1.4
2017-Nov-23 00:30N 51°12' E 001°42'1 1.0
2017-Nov-23 00:00N 51°12' E 001°42'1 2.0
2017-Nov-22 23:30N 51°13' E 001°44'1 2.6
2017-Nov-22 23:00N 51°13' E 001°45'2 3.7
2017-Nov-22 22:30N 51°15' E 001°46'2 4.0
2017-Nov-22 22:00N 51°17' E 001°48'2 3.5
2017-Nov-22 21:30N 51°19' E 001°49'2 3.7
2017-Nov-22 21:00N 51°20' E 001°50'2 3.8
2017-Nov-22 20:30N 51°22' E 001°51'2 3.7
2017-Nov-22 20:00N 51°24' E 001°52'2 3.7
2017-Nov-22 19:30N 51°25' E 001°53'  
2017-Nov-20 00:19N 55°28' E 008°26'0 0.0
2017-Nov-19 23:52N 55°28' E 008°26'0 0.0
2017-Nov-19 23:22N 55°28' E 008°26'0 0.0
2017-Nov-19 22:52N 55°28' E 008°26'0 0.0
2017-Nov-19 21:37N 55°28' E 008°26'0 0.0
2017-Nov-19 21:22N 55°28' E 008°26'0 0.0
2017-Nov-19 20:55N 55°28' E 008°26'0 0.0
2017-Nov-19 20:22N 55°28' E 008°26'0 0.0
2017-Nov-19 19:52N 55°28' E 008°26'0 0.0
2017-Nov-19 19:25N 55°28' E 008°26'0 0.0
2017-Nov-19 18:55N 55°28' E 008°26'0 0.0
2017-Nov-19 18:28N 55°28' E 008°26'0 0.0
2017-Nov-19 17:58N 55°28' E 008°26'0 0.0
2017-Nov-19 17:13N 55°28' E 008°26'0 0.0
2017-Nov-19 16:58N 55°28' E 008°26'0 0.0
2017-Nov-19 15:46N 55°28' E 008°26'0 0.0
2017-Nov-19 15:16N 55°28' E 008°26'0 0.0
2017-Nov-19 14:58N 55°28' E 008°26'0 0.0
2017-Nov-19 14:28N 55°28' E 008°26'0 0.0
2017-Nov-19 13:43N 55°28' E 008°26'0 0.0
2017-Nov-19 13:13N 55°28' E 008°26'0 0.0
2017-Nov-19 12:58N 55°28' E 008°26'0 0.0
2017-Nov-19 12:28N 55°28' E 008°26'0 0.0
2017-Nov-19 11:58N 55°28' E 008°26'0 0.0
2017-Nov-19 11:28N 55°28' E 008°26'0 0.0
2017-Nov-19 10:49N 55°28' E 008°26'0 0.0
2017-Nov-19 10:19N 55°28' E 008°26'0 0.0
2017-Nov-19 09:52N 55°28' E 008°26'0 0.0
2017-Nov-19 09:19N 55°28' E 008°26'0 0.0
2017-Nov-19 08:49N 55°28' E 008°26'0 0.0
2017-Nov-19 08:07N 55°28' E 008°26'0 0.0
2017-Nov-19 07:37N 55°28' E 008°26'0 0.0
2017-Nov-19 07:25N 55°28' E 008°26'0 0.0
2017-Nov-19 06:52N 55°28' E 008°26'0 0.0
2017-Nov-19 06:25N 55°28' E 008°26'0 0.0
2017-Nov-19 05:52N 55°28' E 008°26'0 0.0
2017-Nov-19 05:25N 55°28' E 008°26'0 0.0
2017-Nov-19 04:52N 55°28' E 008°26'0 0.0
2017-Nov-19 04:28N 55°28' E 008°26'0 0.0
2017-Nov-19 03:58N 55°28' E 008°26'0 0.0
2017-Nov-19 03:28N 55°28' E 008°26'0 0.0
2017-Nov-19 02:55N 55°28' E 008°26'0 0.0
2017-Nov-19 02:25N 55°28' E 008°26'0 0.0
2017-Nov-19 01:58N 55°28' E 008°26'0 0.0
2017-Nov-19 01:28N 55°28' E 008°26'0 0.0
2017-Nov-19 00:55N 55°28' E 008°26'0 0.0
2017-Nov-19 00:28N 55°28' E 008°26'0 0.0
2017-Nov-18 23:58N 55°28' E 008°26'0 0.0
2017-Nov-18 23:28N 55°28' E 008°26'0 0.0
2017-Nov-18 22:43N 55°28' E 008°26'0 0.0
2017-Nov-18 22:28N 55°28' E 008°26'0 0.0
2017-Nov-18 21:49N 55°28' E 008°26'0 0.0
2017-Nov-18 21:04N 55°28' E 008°26'0 0.0
2017-Nov-18 20:49N 55°28' E 008°26'0 0.0
2017-Nov-18 20:16N 55°28' E 008°26'0 0.0
2017-Nov-18 19:49N 55°28' E 008°26'0 0.0
2017-Nov-18 19:19N 55°28' E 008°26'0 0.0
2017-Nov-18 18:46N 55°28' E 008°26'0 0.0
2017-Nov-18 17:52N 55°28' E 008°26'0 0.0
2017-Nov-18 17:25N 55°28' E 008°26'0 0.0
2017-Nov-18 16:37N 55°28' E 008°26'0 0.0
2017-Nov-18 16:25N 55°28' E 008°26'0 0.0
2017-Nov-18 15:55N 55°28' E 008°26'0 0.0
2017-Nov-18 15:22N 55°28' E 008°26'0 0.0
2017-Nov-18 14:55N 55°28' E 008°26'0 0.0
2017-Nov-18 14:22N 55°28' E 008°26'0 0.0
2017-Nov-18 13:58N 55°28' E 008°26'0 0.0
2017-Nov-18 13:28N 55°28' E 008°26'0 0.0
2017-Nov-18 12:55N 55°28' E 008°26'0 0.0
2017-Nov-18 12:28N 55°28' E 008°26'0 0.0
2017-Nov-18 11:55N 55°28' E 008°26'0 0.0
2017-Nov-18 11:16N 55°28' E 008°26'0 0.0
2017-Nov-18 10:55N 55°28' E 008°26'0 0.0
2017-Nov-18 10:16N 55°28' E 008°26'0 0.0
2017-Nov-18 09:58N 55°28' E 008°26'0 0.0
2017-Nov-18 09:01N 55°28' E 008°26'0 0.0
2017-Nov-18 08:58N 55°28' E 008°26'0 0.0
2017-Nov-18 08:28N 55°28' E 008°26'0 0.0
2017-Nov-18 07:58N 55°28' E 008°26'0 0.0
2017-Nov-18 07:19N 55°28' E 008°26'0 0.0
2017-Nov-18 06:49N 55°28' E 008°26'0 0.0
2017-Nov-18 06:19N 55°28' E 008°26'0 0.0
2017-Nov-18 05:46N 55°28' E 008°26'0 0.0
2017-Nov-18 05:22N 55°28' E 008°26'0 0.0
2017-Nov-18 04:52N 55°28' E 008°26'0 0.0
2017-Nov-18 04:19N 55°28' E 008°26'0 0.0
2017-Nov-18 03:52N 55°28' E 008°26'0 0.0
2017-Nov-18 03:22N 55°28' E 008°26'0 0.0
2017-Nov-18 02:52N 55°28' E 008°26'0 0.0
2017-Nov-18 02:25N 55°28' E 008°26'0 0.0
2017-Nov-18 01:52N 55°28' E 008°26'0 0.0
2017-Nov-18 01:25N 55°28' E 008°26'0 0.0
2017-Nov-18 00:52N 55°28' E 008°26'0 0.0
2017-Nov-18 00:25N 55°28' E 008°26'0 0.0
2017-Nov-17 23:55N 55°28' E 008°26'0 0.0
2017-Nov-17 23:28N 55°28' E 008°26'0 0.0
2017-Nov-17 22:55N 55°28' E 008°26'0 0.0
2017-Nov-17 22:25N 55°28' E 008°26'0 0.0
2017-Nov-17 21:58N 55°28' E 008°26'0 0.0
2017-Nov-17 21:16N 55°28' E 008°26'0 0.0
2017-Nov-17 20:58N 55°28' E 008°26'0 0.0
2017-Nov-17 20:28N 55°28' E 008°26'0 0.0
2017-Nov-17 19:46N 55°28' E 008°26'0 0.0
2017-Nov-17 19:28N 55°28' E 008°26'0 0.0
2017-Nov-17 18:58N 55°28' E 008°26'0 0.0
2017-Nov-17 18:28N 55°28' E 008°26'0 0.0
2017-Nov-17 17:58N 55°28' E 008°26'0 0.0
2017-Nov-17 16:49N 55°28' E 008°26'0 0.0
2017-Nov-17 16:19N 55°28' E 008°26'0 0.0
2017-Nov-17 15:49N 55°28' E 008°26'0 0.0
2017-Nov-17 15:19N 55°28' E 008°26'0 0.0
2017-Nov-17 14:49N 55°28' E 008°26'0 0.0
2017-Nov-17 14:22N 55°28' E 008°26'0 0.0
2017-Nov-17 13:49N 55°28' E 008°26'0 0.0
2017-Nov-17 13:19N 55°28' E 008°26'0 0.0
2017-Nov-17 12:49N 55°28' E 008°26'0 0.0
2017-Nov-17 12:25N 55°28' E 008°26'0 0.0
2017-Nov-17 11:55N 55°28' E 008°26'0 0.0
2017-Nov-17 11:25N 55°28' E 008°26'0 0.3
2017-Nov-17 10:55N 55°27' E 008°26'1 1.3
2017-Nov-17 10:16N 55°27' E 008°28'0 0.0
2017-Nov-17 09:58N 55°27' E 008°28'0 0.0
2017-Nov-17 09:13N 55°27' E 008°28'0 0.0
2017-Nov-17 08:46N 55°27' E 008°28'0 0.0
2017-Nov-17 08:19N 55°27' E 008°28'0 0.0
2017-Nov-17 07:49N 55°27' E 008°28'0 0.0
2017-Nov-17 07:22N 55°27' E 008°28'0 0.0
2017-Nov-17 06:52N 55°27' E 008°28'0 0.0
2017-Nov-17 06:22N 55°27' E 008°28'0 0.0
2017-Nov-17 05:49N 55°27' E 008°28'0 0.0
2017-Nov-17 05:22N 55°27' E 008°28'0 0.0
2017-Nov-17 04:49N 55°27' E 008°28'0 0.0
2017-Nov-17 04:25N 55°27' E 008°28'0 0.0
2017-Nov-17 03:55N 55°27' E 008°28'0 0.0
2017-Nov-17 03:25N 55°27' E 008°28'0 0.0
2017-Nov-17 02:55N 55°27' E 008°28'0 0.0
2017-Nov-17 02:22N 55°27' E 008°28'0 0.0
2017-Nov-17 01:52N 55°27' E 008°28'0 0.0
2017-Nov-17 01:28N 55°27' E 008°28'0 0.0
2017-Nov-17 00:58N 55°27' E 008°28'0 0.0
2017-Nov-17 00:28N 55°27' E 008°28'0 0.0
2017-Nov-16 23:58N 55°27' E 008°28'0 0.0
2017-Nov-16 23:25N 55°27' E 008°28'0 0.0
2017-Nov-16 22:58N 55°27' E 008°28'0 0.0
2017-Nov-16 22:25N 55°27' E 008°28'0 0.0
2017-Nov-16 21:46N 55°27' E 008°28'0 0.0
2017-Nov-16 21:28N 55°27' E 008°28'0 0.0
2017-Nov-16 20:58N 55°27' E 008°28'0 0.0
2017-Nov-16 20:28N 55°27' E 008°28'0 0.0
2017-Nov-16 19:46N 55°27' E 008°28'0 0.0
2017-Nov-16 19:19N 55°27' E 008°28'0 0.0
2017-Nov-16 18:58N 55°27' E 008°28'0 0.0
2017-Nov-16 18:19N 55°27' E 008°28'0 0.0
2017-Nov-16 17:46N 55°27' E 008°28'0 0.0
2017-Nov-16 17:07N 55°27' E 008°28'0 0.0
2017-Nov-16 16:49N 55°27' E 008°28'0 0.0
2017-Nov-16 16:22N 55°27' E 008°28'0 0.0
2017-Nov-16 15:52N 55°27' E 008°28'0 0.0
2017-Nov-16 15:22N 55°27' E 008°28'0 0.0
2017-Nov-16 14:52N 55°27' E 008°28'0 0.0
2017-Nov-16 14:22N 55°27' E 008°28'0 0.0
2017-Nov-16 13:52N 55°27' E 008°28'0 0.0
2017-Nov-16 13:22N 55°27' E 008°28'0 0.0
2017-Nov-16 12:25N 55°27' E 008°28'0 0.0
2017-Nov-16 11:55N 55°27' E 008°28'0 0.0
2017-Nov-16 11:25N 55°27' E 008°28'0 0.0
2017-Nov-16 10:58N 55°27' E 008°28'0 0.0
2017-Nov-16 10:28N 55°27' E 008°28'0 0.0
2017-Nov-16 09:43N 55°27' E 008°28'0 0.0
2017-Nov-16 09:28N 55°27' E 008°28'0 0.0
2017-Nov-16 08:40N 55°27' E 008°28'0 0.0
2017-Nov-16 08:28N 55°27' E 008°28'0 0.0
2017-Nov-16 07:55N 55°27' E 008°28'0 0.0
2017-Nov-16 07:28N 55°27' E 008°28'0 0.0
2017-Nov-16 06:58N 55°27' E 008°28'0 0.0
2017-Nov-16 06:16N 55°27' E 008°28'0 0.0
2017-Nov-16 05:58N 55°27' E 008°28'0 0.0
2017-Nov-16 05:28N 55°27' E 008°28'0 0.0
2017-Nov-16 04:49N 55°27' E 008°28'0 0.0
2017-Nov-16 04:04N 55°27' E 008°28'0 0.0
2017-Nov-16 03:49N 55°27' E 008°28'0 0.0
2017-Nov-16 03:22N 55°27' E 008°28'0 0.0
2017-Nov-16 02:52N 55°27' E 008°28'0 0.0
2017-Nov-16 02:01N 55°27' E 008°28'0 0.0
2017-Nov-16 01:49N 55°27' E 008°28'0 0.0
2017-Nov-16 01:22N 55°27' E 008°28'0 0.0
2017-Nov-16 00:52N 55°27' E 008°28'0 0.0
2017-Nov-16 00:25N 55°27' E 008°28'0 0.0
2017-Nov-15 23:55N 55°27' E 008°28'0 0.0
2017-Nov-15 23:25N 55°27' E 008°28'0 0.0
2017-Nov-15 22:37N 55°27' E 008°28'0 0.0
2017-Nov-15 22:25N 55°27' E 008°28'0 0.0
2017-Nov-15 21:55N 55°27' E 008°28'0 0.0
2017-Nov-15 21:30N 55°27' E 008°28'0 0.0
2017-Nov-15 20:58N 55°27' E 008°28'0 0.0
2017-Nov-15 20:28N 55°27' E 008°28'0 0.0
2017-Nov-15 19:58N 55°27' E 008°28'0 0.0
2017-Nov-15 18:55N 55°27' E 008°28'0 0.0
2017-Nov-15 18:28N 55°27' E 008°28'0 0.0
2017-Nov-15 17:59N 55°27' E 008°28'0 0.0
2017-Nov-15 17:30N 55°27' E 008°28'0 0.0
2017-Nov-15 17:00N 55°27' E 008°28'0 0.0
2017-Nov-15 16:30N 55°27' E 008°28'0 0.3
2017-Nov-15 16:00N 55°27' E 008°27'2 3.7
2017-Nov-15 15:30N 55°28' E 008°25'2 3.9
2017-Nov-15 15:00N 55°29' E 008°21'2 5.0
2017-Nov-15 14:30N 55°27' E 008°18'3 5.3
2017-Nov-15 14:00N 55°26' E 008°14'3 5.8
2017-Nov-15 13:30N 55°24' E 008°10'2 4.4
2017-Nov-15 13:00N 55°23' E 008°07'2 3.8
2017-Nov-15 12:30N 55°22' E 008°04'3 6.0
2017-Nov-15 12:00N 55°20' E 007°60'3 6.7
2017-Nov-15 11:30N 55°18' E 007°55'3 6.8
2017-Nov-15 11:00N 55°16' E 007°50'3 6.7
2017-Nov-15 10:30N 55°14' E 007°45'3 6.7
2017-Nov-15 10:00N 55°13' E 007°40'3 6.8
2017-Nov-15 09:30N 55°11' E 007°35'4 7.2
2017-Nov-15 09:00N 55°09' E 007°30'3 6.7
2017-Nov-15 08:30N 55°06' E 007°26'3 6.8
2017-Nov-15 08:00N 55°03' E 007°24'3 6.8
2017-Nov-15 07:30N 55°00' E 007°21'3 6.7
2017-Nov-15 07:00N 54°58' E 007°17'3 6.7
2017-Nov-15 06:30N 54°55' E 007°14'3 6.8
2017-Nov-15 06:00N 54°52' E 007°10'4 7.2
2017-Nov-15 05:30N 54°50' E 007°06'3 6.4
2017-Nov-15 05:00N 54°47' E 007°03'3 6.9
2017-Nov-15 04:30N 54°44' E 006°60'4 7.1
2017-Nov-15 04:00N 54°41' E 006°56'  

Dump ship's entire track history